createdAt,value
2023-10-02T00:00:47.353Z,0.00
2023-10-02T00:01:47.596Z,0.00
2023-10-02T00:02:47.629Z,0.00
2023-10-02T00:03:47.735Z,0.00
2023-10-02T00:04:47.877Z,0.00
2023-10-02T00:05:48.010Z,0.00
2023-10-02T00:06:48.136Z,0.00
2023-10-02T00:07:48.225Z,0.00
2023-10-02T00:08:48.327Z,0.00
2023-10-02T00:09:48.415Z,0.00
2023-10-02T00:10:48.662Z,0.00
2023-10-02T00:11:48.704Z,0.00
2023-10-02T00:12:48.822Z,0.00
2023-10-02T00:13:48.946Z,0.00
2023-10-02T00:14:49.067Z,0.00
2023-10-02T00:15:49.225Z,0.00
2023-10-02T00:16:50.353Z,0.00
2023-10-02T00:17:49.484Z,0.00
2023-10-02T00:18:49.543Z,0.00
2023-10-02T00:19:49.692Z,0.00
2023-10-02T00:20:49.808Z,0.00
2023-10-02T00:21:49.901Z,0.00
2023-10-02T00:22:50.108Z,0.00
2023-10-02T00:23:50.166Z,0.00
2023-10-02T00:24:50.354Z,0.00
2023-10-02T00:25:50.471Z,0.00
2023-10-02T00:26:50.552Z,0.00
2023-10-02T00:27:50.650Z,0.00
2023-10-02T00:28:50.812Z,0.00
2023-10-02T00:29:50.860Z,0.00
2023-10-02T00:30:50.992Z,0.00
2023-10-02T00:31:51.162Z,0.00
2023-10-02T00:32:51.376Z,0.00
2023-10-02T00:33:51.334Z,0.00
2023-10-02T00:34:51.550Z,0.00
2023-10-02T00:35:51.781Z,0.00
2023-10-02T00:36:53.273Z,0.00
2023-10-02T00:37:53.555Z,0.00
2023-10-02T00:38:51.964Z,0.00
2023-10-02T00:39:52.062Z,0.00
2023-10-02T00:40:52.257Z,0.00
2023-10-02T00:41:52.318Z,0.00
2023-10-02T00:42:52.415Z,0.00
2023-10-02T00:43:52.572Z,0.00
2023-10-02T00:44:52.705Z,0.00
2023-10-02T00:45:52.801Z,0.00
2023-10-02T00:46:53.018Z,0.00
2023-10-02T00:47:53.157Z,0.00
2023-10-02T00:48:53.191Z,0.00
2023-10-02T00:49:53.301Z,0.00
2023-10-02T00:50:53.417Z,0.00
2023-10-02T00:51:53.601Z,0.00
2023-10-02T00:52:53.773Z,0.00
2023-10-02T00:53:53.854Z,0.00
2023-10-02T00:54:53.951Z,0.00
2023-10-02T00:55:54.109Z,0.00
2023-10-02T00:56:54.165Z,0.00
2023-10-02T00:57:54.291Z,0.00
2023-10-02T00:58:54.403Z,0.00
2023-10-02T00:59:54.536Z,0.00
2023-10-02T01:00:54.691Z,0.00
2023-10-02T01:01:54.810Z,0.00
2023-10-02T01:02:54.940Z,0.00
2023-10-02T01:03:54.992Z,0.00
2023-10-02T01:04:55.150Z,0.00
2023-10-02T01:05:55.260Z,0.00
2023-10-02T01:06:55.377Z,0.00
2023-10-02T01:07:55.830Z,0.00
2023-10-02T01:08:55.636Z,0.00
2023-10-02T01:09:55.752Z,0.00
2023-10-02T01:10:55.909Z,0.00
2023-10-02T01:11:55.999Z,0.00
2023-10-02T01:12:56.119Z,0.00
2023-10-02T01:13:56.301Z,0.00
2023-10-02T01:14:56.386Z,0.00
2023-10-02T01:15:56.485Z,0.00
2023-10-02T01:16:56.675Z,0.00
2023-10-02T01:17:56.844Z,0.00
2023-10-02T01:18:56.873Z,0.00
2023-10-02T01:19:58.072Z,0.00
2023-10-02T01:20:57.141Z,0.00
2023-10-02T01:21:57.263Z,0.00
2023-10-02T01:22:57.444Z,0.00
2023-10-02T01:23:57.556Z,0.00
2023-10-02T01:24:57.613Z,0.00
2023-10-02T01:25:57.782Z,0.00
2023-10-02T01:26:57.818Z,0.00
2023-10-02T01:27:57.940Z,0.00
2023-10-02T01:28:58.090Z,0.00
2023-10-02T01:29:58.127Z,0.00
2023-10-02T01:30:58.314Z,0.00
2023-10-02T01:31:58.411Z,0.00
2023-10-02T01:32:58.557Z,0.00
2023-10-02T01:33:58.741Z,0.00
2023-10-02T01:34:58.831Z,0.00
2023-10-02T01:36:00.971Z,0.00
2023-10-02T01:36:58.979Z,0.00
2023-10-02T01:37:59.098Z,0.00
2023-10-02T01:38:59.227Z,0.00
2023-10-02T01:39:59.376Z,0.00
2023-10-02T01:40:59.555Z,0.00
2023-10-02T01:41:59.628Z,0.00
2023-10-02T01:42:59.722Z,0.00
2023-10-02T01:44:00.076Z,0.00
2023-10-02T01:44:59.982Z,0.00
2023-10-02T01:46:00.108Z,0.00
2023-10-02T01:47:00.354Z,0.00
2023-10-02T01:48:00.401Z,0.00
2023-10-02T01:49:00.495Z,0.00
2023-10-02T01:50:00.595Z,0.00
2023-10-02T01:51:00.650Z,0.00
2023-10-02T01:52:00.793Z,0.00
2023-10-02T01:53:00.871Z,0.00
2023-10-02T01:54:01.368Z,0.00
2023-10-02T01:55:01.236Z,0.00
2023-10-02T01:56:01.632Z,0.00
2023-10-02T01:57:01.691Z,0.00
2023-10-02T01:58:01.538Z,0.00
2023-10-02T01:59:01.722Z,0.00
2023-10-02T02:00:01.774Z,0.00
2023-10-02T02:01:01.912Z,0.00
2023-10-02T02:02:02.094Z,0.00
2023-10-02T02:03:02.194Z,0.00
2023-10-02T02:04:02.505Z,0.00
2023-10-02T02:05:02.420Z,0.00
2023-10-02T02:06:02.455Z,0.00
2023-10-02T02:07:02.630Z,0.00
2023-10-02T02:08:02.820Z,0.00
2023-10-02T02:09:02.960Z,0.00
2023-10-02T02:10:03.001Z,0.00
2023-10-02T02:11:03.141Z,0.00
2023-10-02T02:12:03.197Z,0.00
2023-10-02T02:13:03.356Z,0.00
2023-10-02T02:14:03.787Z,0.00
2023-10-02T02:15:03.591Z,0.00
2023-10-02T02:16:03.738Z,0.00
2023-10-02T02:17:04.037Z,0.00
2023-10-02T02:18:05.075Z,0.00
2023-10-02T02:19:04.177Z,0.00
2023-10-02T02:20:04.303Z,0.00
2023-10-02T02:21:04.415Z,0.00
2023-10-02T02:22:04.536Z,0.00
2023-10-02T02:23:04.670Z,0.00
2023-10-02T02:24:04.778Z,0.00
2023-10-02T02:25:04.843Z,0.00
2023-10-02T02:26:04.983Z,0.00
2023-10-02T02:27:05.077Z,0.00
2023-10-02T02:28:05.202Z,0.00
2023-10-02T02:29:05.402Z,0.00
2023-10-02T02:30:05.454Z,0.00
2023-10-02T02:31:05.600Z,0.00
2023-10-02T02:32:05.783Z,0.00
2023-10-02T02:33:05.872Z,0.00
2023-10-02T02:34:05.962Z,0.00
2023-10-02T02:35:06.167Z,0.00
2023-10-02T02:36:06.221Z,0.00
2023-10-02T02:37:06.344Z,0.00
2023-10-02T02:38:06.493Z,0.00
2023-10-02T02:39:06.608Z,0.00
2023-10-02T02:40:06.713Z,0.00
2023-10-02T02:41:07.181Z,0.00
2023-10-02T02:42:06.943Z,0.00
2023-10-02T02:43:07.042Z,0.00
2023-10-02T02:44:07.185Z,0.00
2023-10-02T02:45:07.289Z,0.00
2023-10-02T02:46:07.467Z,0.00
2023-10-02T02:47:07.530Z,0.00
2023-10-02T02:48:07.937Z,0.00
2023-10-02T02:49:07.729Z,0.00
2023-10-02T02:50:07.970Z,0.00
2023-10-02T02:51:08.017Z,0.00
2023-10-02T02:52:08.147Z,0.00
2023-10-02T02:53:08.271Z,0.00
2023-10-02T02:54:08.388Z,0.00
2023-10-02T02:55:08.517Z,0.00
2023-10-02T02:56:08.680Z,0.00
2023-10-02T02:57:08.769Z,0.00
2023-10-02T02:58:08.888Z,0.00
2023-10-02T02:59:09.002Z,0.00
2023-10-02T03:00:09.130Z,0.00
2023-10-02T03:01:09.249Z,0.00
2023-10-02T03:02:09.435Z,0.00
2023-10-02T03:03:09.572Z,0.00
2023-10-02T03:04:09.710Z,0.00
2023-10-02T03:05:09.791Z,0.00
2023-10-02T03:06:09.933Z,0.00
2023-10-02T03:07:10.001Z,0.00
2023-10-02T03:08:10.186Z,0.00
2023-10-02T03:09:10.260Z,0.00
2023-10-02T03:10:10.382Z,0.00
2023-10-02T03:11:10.598Z,0.00
2023-10-02T03:12:10.624Z,0.00
2023-10-02T03:13:10.786Z,0.00
2023-10-02T03:14:10.918Z,0.00
2023-10-02T03:15:11.000Z,0.00
2023-10-02T03:16:11.222Z,0.00
2023-10-02T03:17:11.324Z,0.00
2023-10-02T03:18:11.406Z,0.00
2023-10-02T03:19:11.554Z,0.00
2023-10-02T03:20:11.747Z,0.00
2023-10-02T03:21:11.872Z,0.00
2023-10-02T03:22:11.943Z,0.00
2023-10-02T03:23:12.073Z,0.00
2023-10-02T03:24:12.198Z,0.00
2023-10-02T03:25:12.251Z,0.00
2023-10-02T03:26:12.359Z,0.00
2023-10-02T03:27:12.481Z,0.00
2023-10-02T03:28:12.612Z,0.00
2023-10-02T03:29:13.801Z,0.00
2023-10-02T03:30:12.872Z,0.00
2023-10-02T03:31:12.994Z,0.00
2023-10-02T03:32:13.146Z,0.00
2023-10-02T03:33:13.259Z,0.00
2023-10-02T03:34:13.392Z,0.00
2023-10-02T03:35:13.615Z,0.00
2023-10-02T03:36:13.644Z,0.00
2023-10-02T03:37:13.751Z,0.00
2023-10-02T03:38:13.902Z,0.00
2023-10-02T03:39:14.001Z,0.00
2023-10-02T03:40:14.117Z,0.00
2023-10-02T03:41:14.234Z,0.00
2023-10-02T03:42:14.286Z,0.00
2023-10-02T03:43:14.386Z,0.00
2023-10-02T03:44:14.638Z,0.00
2023-10-02T03:45:14.643Z,0.00
2023-10-02T03:46:14.767Z,0.00
2023-10-02T03:47:14.985Z,0.00
2023-10-02T03:48:15.005Z,0.00
2023-10-02T03:49:15.121Z,0.00
2023-10-02T03:50:19.022Z,0.00
2023-10-02T03:51:15.349Z,0.00
2023-10-02T03:52:15.507Z,0.00
2023-10-02T03:53:15.570Z,0.00
2023-10-02T03:54:15.673Z,0.00
2023-10-02T03:55:16.499Z,0.00
2023-10-02T03:56:15.931Z,0.00
2023-10-02T03:57:16.069Z,0.00
2023-10-02T03:58:16.180Z,0.00
2023-10-02T03:59:16.333Z,0.00
2023-10-02T04:00:16.453Z,0.00
2023-10-02T04:01:16.589Z,0.00
2023-10-02T04:02:16.740Z,0.00
2023-10-02T04:03:16.789Z,0.00
2023-10-02T04:04:16.870Z,0.00
2023-10-02T04:05:17.022Z,0.00
2023-10-02T04:06:17.106Z,0.00
2023-10-02T04:07:17.283Z,0.00
2023-10-02T04:08:17.391Z,0.00
2023-10-02T04:09:17.467Z,0.00
2023-10-02T04:10:17.626Z,0.00
2023-10-02T04:11:17.780Z,0.00
2023-10-02T04:12:17.879Z,0.00
2023-10-02T04:13:17.996Z,0.00
2023-10-02T04:14:18.150Z,0.00
2023-10-02T04:15:18.198Z,0.00
2023-10-02T04:16:18.443Z,0.00
2023-10-02T04:17:18.510Z,0.00
2023-10-02T04:18:18.616Z,0.00
2023-10-02T04:19:18.715Z,0.00
2023-10-02T04:20:18.851Z,0.00
2023-10-02T04:21:18.963Z,0.00
2023-10-02T04:22:19.102Z,0.00
2023-10-02T04:23:19.211Z,0.00
2023-10-02T04:24:19.317Z,0.00
2023-10-02T04:25:19.472Z,0.00
2023-10-02T04:26:19.560Z,0.00
2023-10-02T04:27:19.720Z,0.00
2023-10-02T04:28:19.804Z,0.00
2023-10-02T04:29:19.972Z,0.00
2023-10-02T04:30:20.066Z,0.00
2023-10-02T04:31:20.238Z,0.00
2023-10-02T04:32:20.391Z,0.00
2023-10-02T04:33:20.412Z,0.00
2023-10-02T04:34:20.554Z,0.00
2023-10-02T04:35:20.726Z,0.00
2023-10-02T04:36:20.761Z,0.00
2023-10-02T04:37:21.202Z,0.00
2023-10-02T04:38:21.060Z,0.00
2023-10-02T04:39:21.147Z,0.00
2023-10-02T04:40:21.288Z,0.00
2023-10-02T04:41:21.403Z,0.00
2023-10-02T04:42:21.515Z,0.00
2023-10-02T04:43:21.610Z,0.00
2023-10-02T04:44:21.757Z,0.00
2023-10-02T04:45:21.958Z,0.00
2023-10-02T04:46:21.982Z,0.00
2023-10-02T04:47:22.166Z,0.00
2023-10-02T04:48:22.229Z,0.00
2023-10-02T04:49:22.351Z,0.00
2023-10-02T04:50:22.556Z,0.00
2023-10-02T04:51:22.624Z,0.00
2023-10-02T04:52:22.736Z,0.00
2023-10-02T04:53:22.890Z,0.00
2023-10-02T04:54:22.968Z,0.00
2023-10-02T04:55:23.093Z,0.00
2023-10-02T04:56:23.720Z,0.00
2023-10-02T04:57:23.352Z,0.00
2023-10-02T04:58:23.467Z,0.00
2023-10-02T04:59:23.583Z,0.00
2023-10-02T05:00:23.709Z,0.00
2023-10-02T05:01:23.886Z,0.00
2023-10-02T05:02:23.946Z,0.00
2023-10-02T05:03:24.227Z,4.00
2023-10-02T05:04:24.146Z,4.00
2023-10-02T05:05:26.534Z,4.00
2023-10-02T05:06:24.440Z,0.00
2023-10-02T05:07:24.507Z,4.00
2023-10-02T05:08:24.617Z,0.00
2023-10-02T05:09:24.717Z,0.00
2023-10-02T05:10:24.826Z,4.00
2023-10-02T05:11:25.383Z,4.00
2023-10-02T05:12:25.101Z,4.00
2023-10-02T05:13:25.204Z,8.00
2023-10-02T05:14:25.358Z,4.00
2023-10-02T05:15:25.453Z,8.00
2023-10-02T05:16:25.636Z,8.00
2023-10-02T05:17:25.848Z,12.00
2023-10-02T05:18:25.885Z,8.00
2023-10-02T05:19:25.972Z,12.00
2023-10-02T05:20:26.100Z,12.00
2023-10-02T05:21:26.209Z,16.00
2023-10-02T05:22:26.315Z,24.00
2023-10-02T05:23:26.939Z,24.00
2023-10-02T05:24:26.572Z,28.00
2023-10-02T05:25:26.689Z,36.00
2023-10-02T05:26:26.821Z,40.00
2023-10-02T05:27:26.923Z,48.00
2023-10-02T05:28:27.114Z,56.00
2023-10-02T05:29:27.208Z,60.00
2023-10-02T05:30:27.289Z,64.00
2023-10-02T05:31:27.383Z,72.00
2023-10-02T05:32:27.547Z,80.00
2023-10-02T05:33:27.690Z,88.00
2023-10-02T05:34:27.813Z,92.00
2023-10-02T05:35:27.957Z,100.00
2023-10-02T05:36:28.052Z,112.00
2023-10-02T05:37:28.201Z,116.00
2023-10-02T05:38:28.264Z,124.00
2023-10-02T05:39:28.384Z,140.00
2023-10-02T05:40:28.506Z,148.00
2023-10-02T05:41:28.620Z,164.00
2023-10-02T05:42:28.760Z,184.00
2023-10-02T05:43:28.891Z,200.00
2023-10-02T05:44:29.035Z,216.00
2023-10-02T05:45:29.102Z,232.00
2023-10-02T05:46:29.273Z,260.00
2023-10-02T05:47:29.406Z,288.00
2023-10-02T05:48:30.253Z,304.00
2023-10-02T05:49:29.550Z,340.00
2023-10-02T05:50:29.655Z,368.00
2023-10-02T05:51:29.792Z,400.00
2023-10-02T05:52:29.898Z,420.00
2023-10-02T05:53:29.998Z,456.00
2023-10-02T05:54:30.093Z,460.00
2023-10-02T05:55:30.209Z,492.00
2023-10-02T05:56:30.302Z,536.00
2023-10-02T05:57:30.421Z,564.00
2023-10-02T05:58:30.557Z,576.00
2023-10-02T05:59:30.672Z,616.00
2023-10-02T06:00:30.794Z,692.00
2023-10-02T06:01:30.940Z,640.00
2023-10-02T06:02:31.119Z,716.00
2023-10-02T06:03:31.298Z,760.00
2023-10-02T06:04:31.342Z,720.00
2023-10-02T06:05:31.407Z,820.00
2023-10-02T06:06:31.581Z,852.00
2023-10-02T06:07:31.639Z,816.00
2023-10-02T06:08:31.738Z,912.00
2023-10-02T06:09:31.868Z,936.00
2023-10-02T06:10:31.976Z,936.00
2023-10-02T06:11:32.077Z,936.00
2023-10-02T06:12:32.239Z,1012.00
2023-10-02T06:13:32.326Z,1024.00
2023-10-02T06:14:32.522Z,1028.00
2023-10-02T06:15:32.584Z,1056.00
2023-10-02T06:16:32.769Z,1064.00
2023-10-02T06:17:32.866Z,1152.00
2023-10-02T06:18:32.977Z,1244.00
2023-10-02T06:19:33.102Z,1220.00
2023-10-02T06:20:33.156Z,1348.00
2023-10-02T06:21:33.253Z,1328.00
2023-10-02T06:22:33.405Z,1404.00
2023-10-02T06:23:33.515Z,1516.00
2023-10-02T06:24:33.711Z,1448.00
2023-10-02T06:25:33.756Z,1552.00
2023-10-02T06:26:33.874Z,1560.00
2023-10-02T06:27:33.973Z,1560.00
2023-10-02T06:28:34.080Z,1556.00
2023-10-02T06:29:34.209Z,1620.00
2023-10-02T06:30:34.317Z,1628.00
2023-10-02T06:31:34.398Z,1648.00
2023-10-02T06:32:34.542Z,1684.00
2023-10-02T06:33:34.626Z,1800.00
2023-10-02T06:34:34.745Z,1996.00
2023-10-02T06:35:34.864Z,1856.00
2023-10-02T06:36:35.018Z,2012.00
2023-10-02T06:37:35.076Z,2156.00
2023-10-02T06:38:35.182Z,2084.00
2023-10-02T06:39:35.334Z,2056.00
2023-10-02T06:40:35.419Z,2104.00
2023-10-02T06:41:35.579Z,2132.00
2023-10-02T06:42:35.639Z,2136.00
2023-10-02T06:43:35.741Z,2144.00
2023-10-02T06:44:35.892Z,2156.00
2023-10-02T06:45:35.993Z,1940.00
2023-10-02T06:46:36.223Z,1884.00
2023-10-02T06:47:36.606Z,1896.00
2023-10-02T06:48:36.372Z,1916.00
2023-10-02T06:49:36.540Z,1920.00
2023-10-02T06:50:36.764Z,2024.00
2023-10-02T06:51:36.761Z,2024.00
2023-10-02T06:52:36.876Z,1916.00
2023-10-02T06:53:36.992Z,1888.00
2023-10-02T06:54:37.119Z,2032.00
2023-10-02T06:55:37.245Z,2012.00
2023-10-02T06:56:37.366Z,1956.00
2023-10-02T06:57:37.492Z,2236.00
2023-10-02T06:58:37.619Z,2300.00
2023-10-02T06:59:37.766Z,2372.00
2023-10-02T07:00:38.114Z,2308.00
2023-10-02T07:01:37.943Z,2504.00
2023-10-02T07:02:38.105Z,2768.00
2023-10-02T07:03:38.214Z,2476.00
2023-10-02T07:04:38.309Z,2520.00
2023-10-02T07:05:38.368Z,2496.00
2023-10-02T07:06:38.478Z,2668.00
2023-10-02T07:07:38.580Z,2840.00
2023-10-02T07:08:38.733Z,2660.00
2023-10-02T07:09:38.842Z,2832.00
2023-10-02T07:10:38.995Z,3012.00
2023-10-02T07:11:39.108Z,3064.00
2023-10-02T07:12:39.214Z,3148.00
2023-10-02T07:13:39.317Z,3184.00
2023-10-02T07:14:39.484Z,3156.00
2023-10-02T07:15:39.573Z,3192.00
2023-10-02T07:16:39.742Z,3160.00
2023-10-02T07:17:39.885Z,3284.00
2023-10-02T07:18:40.024Z,3348.00
2023-10-02T07:19:40.108Z,3344.00
2023-10-02T07:20:40.202Z,3372.00
2023-10-02T07:21:40.360Z,3372.00
2023-10-02T07:22:40.416Z,3380.00
2023-10-02T07:23:40.761Z,3448.00
2023-10-02T07:24:40.653Z,3476.00
2023-10-02T07:25:40.762Z,3168.00
2023-10-02T07:26:40.954Z,3544.00
2023-10-02T07:27:41.007Z,3444.00
2023-10-02T07:28:41.165Z,3392.00
2023-10-02T07:29:41.309Z,3360.00
2023-10-02T07:30:41.410Z,3372.00
2023-10-02T07:31:41.734Z,3140.00
2023-10-02T07:32:41.994Z,3276.00
2023-10-02T07:33:41.863Z,3000.00
2023-10-02T07:34:41.943Z,3208.00
2023-10-02T07:35:42.027Z,3192.00
2023-10-02T07:36:42.137Z,3528.00
2023-10-02T07:37:42.297Z,3732.00
2023-10-02T07:38:42.338Z,3832.00
2023-10-02T07:39:42.492Z,4304.00
2023-10-02T07:40:42.623Z,4348.00
2023-10-02T07:41:42.754Z,4216.00
2023-10-02T07:42:42.857Z,4412.00
2023-10-02T07:43:42.991Z,4628.00
2023-10-02T07:44:43.085Z,4588.00
2023-10-02T07:45:43.241Z,4524.00
2023-10-02T07:46:43.389Z,4600.00
2023-10-02T07:47:43.463Z,4584.00
2023-10-02T07:48:43.537Z,4692.00
2023-10-02T07:49:43.669Z,4648.00
2023-10-02T07:50:43.732Z,4820.00
2023-10-02T07:51:43.915Z,5076.00
2023-10-02T07:52:43.968Z,4984.00
2023-10-02T07:53:44.120Z,5664.00
2023-10-02T07:54:44.232Z,5440.00
2023-10-02T07:55:44.386Z,5312.00
2023-10-02T07:56:44.484Z,5312.00
2023-10-02T07:57:44.618Z,5432.00
2023-10-02T07:58:44.814Z,5524.00
2023-10-02T07:59:45.128Z,5668.00
2023-10-02T08:00:44.997Z,5720.00
2023-10-02T08:01:45.192Z,5736.00
2023-10-02T08:02:45.356Z,5780.00
2023-10-02T08:03:45.619Z,5772.00
2023-10-02T08:04:45.546Z,5748.00
2023-10-02T08:05:45.572Z,5780.00
2023-10-02T08:06:49.829Z,5788.00
2023-10-02T08:07:47.578Z,5864.00
2023-10-02T08:08:45.962Z,5956.00
2023-10-02T08:09:46.174Z,5612.00
2023-10-02T08:10:46.288Z,5728.00
2023-10-02T08:11:46.383Z,5240.00
2023-10-02T08:12:46.500Z,5516.00
2023-10-02T08:13:46.662Z,5768.00
2023-10-02T08:14:46.832Z,6064.00
2023-10-02T08:15:46.892Z,5588.00
2023-10-02T08:16:47.014Z,5756.00
2023-10-02T08:17:47.164Z,5776.00
2023-10-02T08:18:47.250Z,5972.00
2023-10-02T08:19:47.397Z,6104.00
2023-10-02T08:20:47.445Z,6100.00
2023-10-02T08:21:47.544Z,6024.00
2023-10-02T08:22:47.671Z,5656.00
2023-10-02T08:23:47.766Z,5848.00
2023-10-02T08:24:47.858Z,6100.00
2023-10-02T08:25:48.022Z,6316.00
2023-10-02T08:26:48.155Z,6120.00
2023-10-02T08:27:48.210Z,6336.00
2023-10-02T08:28:48.321Z,6640.00
2023-10-02T08:29:48.440Z,6828.00
2023-10-02T08:30:48.587Z,6824.00
2023-10-02T08:31:48.737Z,6868.00
2023-10-02T08:32:48.993Z,6836.00
2023-10-02T08:33:59.897Z,6636.00
2023-10-02T08:34:50.134Z,6576.00
2023-10-02T08:35:49.288Z,6428.00
2023-10-02T08:36:49.284Z,6344.00
2023-10-02T08:37:49.419Z,6624.00
2023-10-02T08:38:49.503Z,6824.00
2023-10-02T08:39:49.651Z,6644.00
2023-10-02T08:40:49.786Z,6652.00
2023-10-02T08:41:49.861Z,6524.00
2023-10-02T08:42:50.014Z,6392.00
2023-10-02T08:43:50.207Z,6364.00
2023-10-02T08:44:50.273Z,6360.00
2023-10-02T08:45:50.421Z,6008.00
2023-10-02T08:46:50.536Z,6216.00
2023-10-02T08:47:50.673Z,6680.00
2023-10-02T08:48:50.754Z,6652.00
2023-10-02T08:49:50.904Z,6872.00
2023-10-02T08:50:51.030Z,6912.00
2023-10-02T08:51:51.398Z,6680.00
2023-10-02T08:52:51.356Z,6676.00
2023-10-02T08:53:51.429Z,6900.00
2023-10-02T08:54:51.542Z,6668.00
2023-10-02T08:55:51.674Z,6956.00
2023-10-02T08:56:51.837Z,7056.00
2023-10-02T08:58:02.412Z,7028.00
2023-10-02T08:58:53.064Z,7120.00
2023-10-02T08:59:52.193Z,7248.00
2023-10-02T09:00:52.239Z,7240.00
2023-10-02T09:01:52.464Z,7364.00
2023-10-02T09:02:52.620Z,7248.00
2023-10-02T09:03:52.763Z,7756.00
2023-10-02T09:04:52.846Z,8180.00
2023-10-02T09:05:52.910Z,7400.00
2023-10-02T09:06:53.051Z,7776.00
2023-10-02T09:07:53.181Z,7720.00
2023-10-02T09:08:53.271Z,7316.00
2023-10-02T09:09:53.381Z,7188.00
2023-10-02T09:10:53.529Z,7196.00
2023-10-02T09:11:53.684Z,7740.00
2023-10-02T09:12:53.771Z,8136.00
2023-10-02T09:13:53.930Z,8136.00
2023-10-02T09:14:54.083Z,8496.00
2023-10-02T09:15:54.185Z,8644.00
2023-10-02T09:16:54.382Z,8144.00
2023-10-02T09:17:54.541Z,8516.00
2023-10-02T09:18:54.590Z,8760.00
2023-10-02T09:19:55.099Z,8548.00
2023-10-02T09:20:55.729Z,7220.00
2023-10-02T09:21:54.967Z,8620.00
2023-10-02T09:22:55.109Z,9268.00
2023-10-02T09:23:55.242Z,9800.00
2023-10-02T09:24:55.350Z,9128.00
2023-10-02T09:25:55.568Z,9136.00
2023-10-02T09:26:55.601Z,9316.00
2023-10-02T09:27:55.741Z,8876.00
2023-10-02T09:28:55.869Z,8952.00
2023-10-02T09:29:55.941Z,8568.00
2023-10-02T09:30:56.054Z,8608.00
2023-10-02T09:31:56.217Z,8624.00
2023-10-02T09:33:01.235Z,9036.00
2023-10-02T09:34:18.894Z,9104.00
2023-10-02T09:35:29.405Z,9388.00
2023-10-02T09:36:13.827Z,10152.00
2023-10-02T09:37:53.425Z,10344.00
2023-10-02T09:38:04.582Z,10448.00
2023-10-02T09:38:58.232Z,9916.00
2023-10-02T09:39:57.285Z,10340.00
2023-10-02T09:40:57.329Z,10900.00
2023-10-02T09:41:57.390Z,10972.00
2023-10-02T09:42:57.522Z,10428.00
2023-10-02T09:43:57.719Z,9884.00
2023-10-02T09:44:57.832Z,9740.00
2023-10-02T09:45:57.945Z,9952.00
2023-10-02T09:46:58.050Z,9884.00
2023-10-02T09:48:05.943Z,9804.00
2023-10-02T09:48:59.327Z,10184.00
2023-10-02T09:49:58.397Z,10772.00
2023-10-02T09:50:58.494Z,10788.00
2023-10-02T09:51:58.606Z,10808.00
2023-10-02T09:52:58.783Z,10496.00
2023-10-02T09:53:58.856Z,10240.00
2023-10-02T09:54:58.979Z,10404.00
2023-10-02T09:55:59.103Z,10904.00
2023-10-02T09:56:59.192Z,11268.00
2023-10-02T09:57:59.301Z,11288.00
2023-10-02T09:58:59.605Z,11240.00
2023-10-02T09:59:59.615Z,11640.00
2023-10-02T10:00:59.698Z,11692.00
2023-10-02T10:01:59.824Z,11916.00
2023-10-02T10:02:59.989Z,11408.00
2023-10-02T10:04:00.071Z,11076.00
2023-10-02T10:05:00.258Z,11116.00
2023-10-02T10:06:04.620Z,10868.00
2023-10-02T10:07:00.415Z,11156.00
2023-10-02T10:08:00.572Z,11240.00
2023-10-02T10:09:00.758Z,11608.00
2023-10-02T10:10:00.805Z,11676.00
2023-10-02T10:11:00.947Z,11340.00
2023-10-02T10:12:00.960Z,11536.00
2023-10-02T10:13:01.083Z,9928.00
2023-10-02T10:14:01.205Z,10080.00
2023-10-02T10:15:01.320Z,10088.00
2023-10-02T10:16:01.490Z,10288.00
2023-10-02T10:17:01.610Z,10880.00
2023-10-02T10:18:01.673Z,10196.00
2023-10-02T10:19:02.062Z,9708.00
2023-10-02T10:20:01.954Z,10860.00
2023-10-02T10:21:02.026Z,11224.00
2023-10-02T10:22:02.404Z,11032.00
2023-10-02T10:23:02.300Z,10928.00
2023-10-02T10:24:02.413Z,11508.00
2023-10-02T10:25:02.528Z,12348.00
2023-10-02T10:26:02.727Z,11588.00
2023-10-02T10:27:02.806Z,11504.00
2023-10-02T10:28:02.909Z,11372.00
2023-10-02T10:29:03.195Z,11040.00
2023-10-02T10:30:03.153Z,11276.00
2023-10-02T10:31:03.814Z,12280.00
2023-10-02T10:32:03.475Z,12760.00
2023-10-02T10:33:03.597Z,12488.00
2023-10-02T10:34:03.618Z,12548.00
2023-10-02T10:35:03.749Z,12524.00
2023-10-02T10:36:03.856Z,12612.00
2023-10-02T10:37:03.972Z,12776.00
2023-10-02T10:38:04.092Z,12712.00
2023-10-02T10:39:04.214Z,12904.00
2023-10-02T10:40:04.325Z,12992.00
2023-10-02T10:41:04.476Z,12764.00
2023-10-02T10:42:04.566Z,13012.00
2023-10-02T10:43:04.676Z,13028.00
2023-10-02T10:44:04.867Z,12844.00
2023-10-02T10:45:04.937Z,12824.00
2023-10-02T10:46:05.157Z,12380.00
2023-10-02T10:47:05.250Z,12596.00
2023-10-02T10:48:05.333Z,13104.00
2023-10-02T10:49:05.510Z,13464.00
2023-10-02T10:50:05.579Z,13376.00
2023-10-02T10:51:05.669Z,13716.00
2023-10-02T10:52:05.808Z,13652.00
2023-10-02T10:53:05.923Z,13816.00
2023-10-02T10:54:05.993Z,14096.00
2023-10-02T10:55:06.113Z,14120.00
2023-10-02T10:56:06.308Z,14064.00
2023-10-02T10:57:06.365Z,14328.00
2023-10-02T10:58:12.354Z,14540.00
2023-10-02T10:59:07.890Z,14632.00
2023-10-02T11:00:06.742Z,14648.00
2023-10-02T11:01:06.949Z,14908.00
2023-10-02T11:02:07.011Z,14412.00
2023-10-02T11:03:07.154Z,14552.00
2023-10-02T11:04:07.352Z,14592.00
2023-10-02T11:05:07.431Z,14644.00
2023-10-02T11:06:07.474Z,15240.00
2023-10-02T11:07:07.568Z,15252.00
2023-10-02T11:08:08.653Z,15232.00
2023-10-02T11:09:07.836Z,13920.00
2023-10-02T11:10:07.941Z,14528.00
2023-10-02T11:11:08.109Z,16736.00
2023-10-02T11:12:08.190Z,17664.00
2023-10-02T11:13:08.302Z,17376.00
2023-10-02T11:14:08.437Z,16960.00
2023-10-02T11:15:08.580Z,17568.00
2023-10-02T11:16:08.666Z,17312.00
2023-10-02T11:17:08.975Z,17568.00
2023-10-02T11:18:09.024Z,17792.00
2023-10-02T11:19:09.025Z,18400.00
2023-10-02T11:20:09.205Z,18304.00
2023-10-02T11:21:09.320Z,18752.00
2023-10-02T11:22:09.509Z,18336.00
2023-10-02T11:23:09.567Z,19040.00
2023-10-02T11:24:09.775Z,20224.00
2023-10-02T11:25:09.848Z,20256.00
2023-10-02T11:26:10.000Z,20224.00
2023-10-02T11:27:10.155Z,19200.00
2023-10-02T11:28:10.211Z,18016.00
2023-10-02T11:29:10.364Z,17760.00
2023-10-02T11:30:10.461Z,19808.00
2023-10-02T11:31:10.616Z,16480.00
2023-10-02T11:32:10.750Z,17920.00
2023-10-02T11:33:10.876Z,17472.00
2023-10-02T11:35:11.075Z,17344.00
2023-10-02T11:36:11.206Z,13760.00
2023-10-02T11:37:11.370Z,17696.00
2023-10-02T11:38:12.069Z,18848.00
2023-10-02T11:39:11.589Z,21600.00
2023-10-02T11:40:11.718Z,26272.00
2023-10-02T11:41:11.874Z,26336.00
2023-10-02T11:42:11.875Z,28928.00
2023-10-02T11:43:11.991Z,22528.00
2023-10-02T11:44:12.172Z,21248.00
2023-10-02T11:45:12.285Z,19424.00
2023-10-02T11:46:12.394Z,14592.00
2023-10-02T11:47:12.601Z,14252.00
2023-10-02T11:48:12.675Z,14128.00
2023-10-02T11:49:12.750Z,12872.00
2023-10-02T11:50:12.870Z,12504.00
2023-10-02T11:51:12.988Z,14720.00
2023-10-02T11:52:13.106Z,14468.00
2023-10-02T11:53:13.349Z,10612.00
2023-10-02T11:54:13.375Z,10064.00
2023-10-02T11:55:13.516Z,10184.00
2023-10-02T11:56:13.666Z,10932.00
2023-10-02T11:57:13.776Z,10704.00
2023-10-02T11:58:13.877Z,11020.00
2023-10-02T11:59:14.041Z,11056.00
2023-10-02T12:00:14.125Z,11592.00
2023-10-02T12:01:14.243Z,11644.00
2023-10-02T12:02:14.361Z,12048.00
2023-10-02T12:03:14.523Z,12076.00
2023-10-02T12:04:14.627Z,12056.00
2023-10-02T12:05:14.817Z,11680.00
2023-10-02T12:06:14.889Z,11632.00
2023-10-02T12:07:14.959Z,11252.00
2023-10-02T12:08:15.113Z,11348.00
2023-10-02T12:09:15.194Z,11436.00
2023-10-02T12:10:15.320Z,11268.00
2023-10-02T12:11:15.491Z,11732.00
2023-10-02T12:12:15.527Z,12060.00
2023-10-02T12:13:15.637Z,12388.00
2023-10-02T12:14:15.773Z,12108.00
2023-10-02T12:15:15.928Z,12456.00
2023-10-02T12:16:16.076Z,12532.00
2023-10-02T12:17:16.428Z,12772.00
2023-10-02T12:18:16.221Z,12840.00
2023-10-02T12:19:16.358Z,13068.00
2023-10-02T12:20:18.949Z,13288.00
2023-10-02T12:21:16.637Z,13300.00
2023-10-02T12:22:16.742Z,13052.00
2023-10-02T12:23:16.847Z,12824.00
2023-10-02T12:24:16.920Z,12536.00
2023-10-02T12:25:17.280Z,11584.00
2023-10-02T12:26:17.190Z,11428.00
2023-10-02T12:27:17.316Z,11172.00
2023-10-02T12:28:17.392Z,11544.00
2023-10-02T12:29:17.615Z,11988.00
2023-10-02T12:30:17.614Z,12608.00
2023-10-02T12:31:17.786Z,12548.00
2023-10-02T12:32:17.888Z,12084.00
2023-10-02T12:33:18.075Z,11532.00
2023-10-02T12:34:18.082Z,10928.00